createdAt,value
2018-04-02T00:00:45.244Z,100.00
2018-04-02T00:03:12.794Z,100.00
2018-04-02T00:05:41.497Z,100.00
2018-04-02T00:08:09.069Z,100.00
2018-04-02T00:10:36.675Z,100.00
2018-04-02T00:13:04.215Z,100.00
2018-04-02T00:15:31.763Z,100.00
2018-04-02T00:17:59.345Z,100.00
2018-04-02T00:20:26.925Z,100.00
2018-04-02T00:22:54.483Z,100.00
2018-04-02T00:25:22.052Z,100.00
2018-04-02T00:27:49.591Z,100.00
2018-04-02T00:30:17.571Z,100.00
2018-04-02T00:32:45.111Z,100.00
2018-04-02T00:35:12.673Z,100.00
2018-04-02T00:37:40.296Z,100.00
2018-04-02T00:40:07.845Z,100.00
2018-04-02T00:42:35.387Z,100.00
2018-04-02T00:45:02.989Z,100.00
2018-04-02T00:47:30.545Z,100.00
2018-04-02T00:49:58.111Z,100.00
2018-04-02T00:52:25.680Z,100.00
2018-04-02T00:54:53.230Z,100.00
2018-04-02T00:57:21.193Z,100.00
2018-04-02T00:59:48.807Z,100.00
2018-04-02T01:02:16.368Z,100.00
2018-04-02T01:04:43.947Z,100.00
2018-04-02T01:07:11.616Z,100.00
2018-04-02T01:09:39.218Z,100.00
2018-04-02T01:12:07.866Z,100.00
2018-04-02T01:14:35.423Z,100.00
2018-04-02T01:17:03.020Z,100.00
2018-04-02T01:19:30.558Z,100.00
2018-04-02T01:21:58.109Z,100.00
2018-04-02T01:24:25.684Z,100.00
2018-04-02T01:26:53.245Z,100.00
2018-04-02T01:29:20.818Z,100.00
2018-04-02T01:31:48.386Z,100.00
2018-04-02T01:34:15.992Z,100.00
2018-04-02T01:36:45.107Z,100.00
2018-04-02T01:39:12.647Z,100.00
2018-04-02T01:41:40.225Z,100.00
2018-04-02T01:44:07.794Z,100.00
2018-04-02T01:46:35.724Z,100.00
2018-04-02T01:49:03.273Z,100.00
2018-04-02T01:51:30.857Z,100.00
2018-04-02T01:53:58.854Z,100.00
2018-04-02T01:56:26.407Z,100.00
2018-04-02T01:58:53.951Z,100.00
2018-04-02T02:01:21.880Z,100.00
2018-04-02T02:03:49.450Z,100.00
2018-04-02T02:06:17.018Z,100.00
2018-04-02T02:08:44.633Z,100.00
2018-04-02T02:11:12.175Z,100.00
2018-04-02T02:13:39.738Z,100.00
2018-04-02T02:16:07.334Z,100.00
2018-04-02T02:18:34.882Z,100.00
2018-04-02T02:21:02.878Z,100.00
2018-04-02T02:23:30.436Z,100.00
2018-04-02T02:25:57.994Z,100.00
2018-04-02T02:28:25.595Z,100.00
2018-04-02T02:30:53.149Z,100.00
2018-04-02T02:33:20.690Z,100.00
2018-04-02T02:35:48.279Z,100.00
2018-04-02T02:38:15.866Z,100.00
2018-04-02T02:40:43.528Z,100.00
2018-04-02T02:43:11.090Z,100.00
2018-04-02T02:45:38.672Z,100.00
2018-04-02T02:48:06.709Z,100.00
2018-04-02T02:50:34.267Z,100.00
2018-04-02T02:53:01.840Z,100.00
2018-04-02T02:55:29.449Z,100.00
2018-04-02T02:57:57.036Z,100.00
2018-04-02T03:00:24.587Z,100.00
2018-04-02T03:02:52.165Z,100.00
2018-04-02T03:05:20.132Z,100.00
2018-04-02T03:07:47.705Z,100.00
2018-04-02T03:10:15.255Z,100.00
2018-04-02T03:12:42.853Z,100.00
2018-04-02T03:15:10.396Z,100.00
2018-04-02T03:17:37.961Z,100.00
2018-04-02T03:20:05.581Z,100.00
2018-04-02T03:22:33.144Z,100.00
2018-04-02T03:25:00.709Z,100.00
2018-04-02T03:27:28.303Z,100.00
2018-04-02T03:29:55.872Z,100.00
2018-04-02T03:32:23.432Z,100.00
2018-04-02T03:34:51.395Z,100.00
2018-04-02T03:37:18.966Z,100.00
2018-04-02T03:39:46.516Z,100.00
2018-04-02T03:42:14.108Z,100.00
2018-04-02T03:44:41.664Z,100.00
2018-04-02T03:47:09.248Z,100.00
2018-04-02T03:49:36.874Z,100.00
2018-04-02T03:52:04.457Z,100.00
2018-04-02T03:54:32.052Z,100.00
2018-04-02T03:57:00.024Z,100.00
2018-04-02T03:59:27.608Z,100.00
2018-04-02T04:01:55.163Z,100.00
2018-04-02T04:04:22.763Z,100.00
2018-04-02T04:06:50.336Z,100.00
2018-04-02T04:09:17.902Z,100.00
2018-04-02T04:11:45.493Z,100.00
2018-04-02T04:14:13.062Z,100.00
2018-04-02T04:16:41.055Z,100.00
2018-04-02T04:19:08.606Z,100.00
2018-04-02T04:21:36.186Z,100.00
2018-04-02T04:24:03.837Z,100.00
2018-04-02T04:26:31.414Z,100.00
2018-04-02T04:28:58.972Z,100.00
2018-04-02T04:31:26.678Z,100.00
2018-04-02T04:33:54.251Z,100.00
2018-04-02T04:36:21.812Z,100.00
2018-04-02T04:38:49.426Z,100.00
2018-04-02T04:41:16.969Z,100.00
2018-04-02T04:43:44.524Z,100.00
2018-04-02T04:46:12.109Z,100.00
2018-04-02T04:48:39.725Z,100.00
2018-04-02T04:51:07.333Z,100.00
2018-04-02T04:53:34.887Z,100.00
2018-04-02T04:56:02.503Z,100.00
2018-04-02T04:58:30.062Z,100.00
2018-04-02T05:00:57.612Z,100.00
2018-04-02T05:03:25.521Z,100.00
2018-04-02T05:05:53.091Z,100.00
2018-04-02T05:08:20.641Z,100.00
2018-04-02T05:10:48.590Z,100.00
2018-04-02T05:13:16.154Z,100.00
2018-04-02T05:15:43.713Z,100.00
2018-04-02T05:18:11.322Z,100.00
2018-04-02T05:20:38.864Z,100.00
2018-04-02T05:23:06.421Z,100.00
2018-04-02T05:25:34.032Z,100.00
2018-04-02T05:28:01.601Z,100.00
2018-04-02T05:30:29.156Z,100.00
2018-04-02T05:32:56.754Z,100.00
2018-04-02T05:35:24.342Z,100.00
2018-04-02T05:37:51.905Z,100.00
2018-04-02T05:40:19.478Z,100.00
2018-04-02T05:42:47.461Z,100.00
2018-04-02T05:45:15.064Z,100.00
2018-04-02T05:47:42.601Z,100.00
2018-04-02T05:50:10.220Z,100.00
2018-04-02T05:52:37.780Z,100.00
2018-04-02T05:55:05.352Z,100.00
2018-04-02T05:57:32.959Z,100.00
2018-04-02T06:00:00.530Z,100.00
2018-04-02T06:02:28.093Z,100.00
2018-04-02T06:04:56.033Z,100.00
2018-04-02T06:07:23.605Z,100.00
2018-04-02T06:09:51.163Z,100.00
2018-04-02T06:12:18.785Z,100.00
2018-04-02T06:14:46.342Z,100.00
2018-04-02T06:17:13.896Z,100.00
2018-04-02T06:19:41.500Z,100.00
2018-04-02T06:22:09.056Z,100.00
2018-04-02T06:24:36.599Z,100.00
2018-04-02T06:27:04.432Z,100.00
2018-04-02T06:29:32.004Z,100.00
2018-04-02T06:31:59.599Z,100.00
2018-04-02T06:34:27.197Z,100.00
2018-04-02T06:36:54.759Z,100.00
2018-04-02T06:39:22.361Z,100.00
2018-04-02T06:41:49.903Z,100.00
2018-04-02T06:44:17.517Z,100.00
2018-04-02T06:46:45.058Z,100.00
2018-04-02T06:49:12.621Z,100.00
2018-04-02T06:51:40.623Z,100.00
2018-04-02T06:54:08.587Z,100.00
2018-04-02T06:56:36.151Z,100.00
2018-04-02T06:59:04.173Z,100.00
2018-04-02T07:01:31.732Z,100.00
2018-04-02T07:03:59.300Z,100.00
2018-04-02T07:06:27.302Z,100.00
2018-04-02T07:08:54.866Z,100.00
2018-04-02T07:11:22.424Z,100.00
2018-04-02T07:13:50.016Z,100.00
2018-04-02T07:16:17.582Z,100.00
2018-04-02T07:18:45.613Z,100.00
2018-04-02T07:21:13.159Z,100.00
2018-04-02T07:23:40.721Z,100.00
2018-04-02T07:26:08.327Z,100.00
2018-04-02T07:28:35.894Z,100.00
2018-04-02T07:31:03.455Z,100.00
2018-04-02T07:33:31.075Z,100.00
2018-04-02T07:35:58.855Z,100.00
2018-04-02T07:38:26.405Z,100.00
2018-04-02T07:40:54.026Z,100.00
2018-04-02T07:43:21.580Z,100.00
2018-04-02T07:45:49.144Z,100.00
2018-04-02T07:48:16.772Z,97.14
2018-04-02T07:50:44.332Z,100.00
2018-04-02T07:53:11.900Z,100.00
2018-04-02T07:55:39.518Z,100.00
2018-04-02T07:58:07.132Z,100.00
2018-04-02T08:00:34.713Z,100.00
2018-04-02T08:03:02.272Z,100.00
2018-04-02T08:05:29.822Z,100.00
2018-04-02T08:07:57.412Z,100.00
2018-04-02T08:10:24.988Z,100.00
2018-04-02T08:12:52.568Z,100.00
2018-04-02T08:15:20.213Z,100.00
2018-04-02T08:17:47.779Z,100.00
2018-04-02T08:20:15.374Z,100.00
2018-04-02T08:22:42.977Z,100.00
2018-04-02T08:25:10.547Z,99.17
2018-04-02T08:27:38.097Z,99.54
2018-04-02T08:30:05.690Z,100.00
2018-04-02T08:32:33.298Z,99.51
2018-04-02T08:35:01.252Z,98.59
2018-04-02T08:37:28.795Z,98.32
2018-04-02T08:39:56.345Z,97.25
2018-04-02T08:42:23.919Z,94.63
2018-04-02T08:44:51.524Z,96.88
2018-04-02T08:47:19.084Z,96.51
2018-04-02T08:49:46.641Z,95.75
2018-04-02T08:52:14.237Z,95.28
2018-04-02T08:54:41.785Z,95.80
2018-04-02T08:57:09.334Z,93.85
2018-04-02T08:59:37.280Z,93.89
2018-04-02T09:02:04.832Z,91.95
2018-04-02T09:04:32.387Z,93.16
2018-04-02T09:07:00.333Z,93.77
2018-04-02T09:09:27.886Z,94.09
2018-04-02T09:11:55.431Z,92.20
2018-04-02T09:14:23.014Z,92.34
2018-04-02T09:16:50.643Z,92.47
2018-04-02T09:19:18.192Z,91.80
2018-04-02T09:21:45.732Z,90.74
2018-04-02T09:24:13.730Z,91.07
2018-04-02T09:26:41.305Z,91.79
2018-04-02T09:29:08.872Z,91.33
2018-04-02T09:31:36.445Z,89.30
2018-04-02T09:34:04.030Z,89.83
2018-04-02T09:36:32.008Z,89.68
2018-04-02T09:38:59.554Z,88.73
2018-04-02T09:41:27.128Z,89.58
2018-04-02T09:43:54.710Z,89.49
2018-04-02T09:46:22.269Z,88.35
2018-04-02T09:48:49.849Z,89.73
2018-04-02T09:51:17.423Z,90.88
2018-04-02T09:53:45.019Z,91.26
2018-04-02T09:56:12.569Z,91.44
2018-04-02T09:58:40.127Z,91.41
2018-04-02T10:01:07.716Z,91.07
2018-04-02T10:03:39.282Z,90.32
2018-04-02T10:06:06.881Z,90.24
2018-04-02T10:08:34.426Z,89.63
2018-04-02T10:11:02.011Z,88.32
2018-04-02T10:13:29.585Z,88.25
2018-04-02T10:15:57.132Z,88.76
2018-04-02T10:18:24.737Z,87.65
2018-04-02T10:20:52.288Z,86.29
2018-04-02T10:23:19.827Z,86.17
2018-04-02T10:25:47.442Z,87.63
2018-04-02T10:28:15.043Z,85.65
2018-04-02T10:30:42.584Z,85.22
2018-04-02T10:33:10.168Z,82.92
2018-04-02T10:35:37.724Z,84.11
2018-04-02T10:38:05.345Z,85.02
2018-04-02T10:40:32.894Z,82.81
2018-04-02T10:43:00.452Z,82.45
2018-04-02T10:45:28.042Z,82.74
2018-04-02T10:47:55.608Z,81.17
2018-04-02T10:50:23.206Z,82.21
2018-04-02T10:52:50.749Z,83.41
2018-04-02T10:55:18.300Z,80.11
2018-04-02T10:57:45.876Z,80.25
2018-04-02T11:00:13.443Z,79.91
2018-04-02T11:02:41.049Z,81.38
2018-04-02T11:05:08.596Z,79.42
2018-04-02T11:07:36.155Z,80.16
2018-04-02T11:10:03.752Z,79.10
2018-04-02T11:12:31.392Z,79.42
2018-04-02T11:14:58.958Z,78.65
2018-04-02T11:17:26.545Z,78.01
2018-04-02T11:19:54.116Z,77.54
2018-04-02T11:22:21.717Z,77.51
2018-04-02T11:24:49.282Z,77.95
2018-04-02T11:27:16.841Z,76.22
2018-04-02T11:29:44.577Z,76.00
2018-04-02T11:32:12.136Z,77.07
2018-04-02T11:34:39.688Z,78.91
2018-04-02T11:37:07.270Z,77.80
2018-04-02T11:39:34.825Z,78.23
2018-04-02T11:42:02.413Z,77.59
2018-04-02T11:44:29.959Z,77.01
2018-04-02T11:46:57.589Z,78.78
2018-04-02T11:49:25.140Z,77.11
2018-04-02T11:51:52.687Z,75.20
2018-04-02T11:54:20.305Z,75.59
2018-04-02T11:56:47.861Z,76.06
2018-04-02T11:59:15.477Z,75.04
2018-04-02T12:01:45.219Z,75.91
2018-04-02T12:04:12.849Z,76.54
2018-04-02T12:06:40.415Z,75.34
2018-04-02T12:09:08.413Z,74.81
2018-04-02T12:11:35.969Z,74.71
2018-04-02T12:14:03.559Z,73.57
2018-04-02T12:16:31.165Z,74.11
2018-04-02T12:18:58.723Z,72.69
2018-04-02T12:21:26.286Z,72.83
2018-04-02T12:23:53.874Z,69.87
2018-04-02T12:26:21.490Z,71.37
2018-04-02T12:28:49.125Z,70.25
2018-04-02T12:31:16.740Z,70.92
2018-04-02T12:33:44.349Z,70.71
2018-04-02T12:36:12.065Z,71.07
2018-04-02T12:38:39.664Z,71.47
2018-04-02T12:41:07.979Z,72.07
2018-04-02T12:43:35.525Z,72.54
2018-04-02T12:46:03.104Z,74.11
2018-04-02T12:48:31.061Z,71.93
2018-04-02T12:50:58.605Z,73.27
2018-04-02T12:53:26.152Z,73.95
2018-04-02T12:55:53.734Z,74.20
2018-04-02T12:58:21.465Z,73.11
2018-04-02T13:00:49.016Z,73.01
2018-04-02T13:03:16.577Z,72.58
2018-04-02T13:05:44.531Z,72.70
2018-04-02T13:08:12.088Z,72.97
2018-04-02T13:10:39.682Z,70.92
2018-04-02T13:13:07.286Z,71.03
2018-04-02T13:15:34.836Z,71.58
2018-04-02T13:18:02.397Z,70.82
2018-04-02T13:20:30.013Z,70.45
2018-04-02T13:22:57.564Z,69.93
2018-04-02T13:25:25.120Z,70.56
2018-04-02T13:27:52.713Z,71.96
2018-04-02T13:30:20.261Z,68.92
2018-04-02T13:32:47.819Z,68.73
2018-04-02T13:35:15.415Z,69.67
2018-04-02T13:37:42.982Z,70.82
2018-04-02T13:40:10.941Z,70.91
2018-04-02T13:42:38.711Z,68.74
2018-04-02T13:45:06.312Z,66.98
2018-04-02T13:47:33.879Z,68.74
2018-04-02T13:50:01.443Z,68.43
2018-04-02T13:52:29.026Z,67.33
2018-04-02T13:54:56.591Z,66.19
2018-04-02T13:57:24.191Z,67.49
2018-04-02T13:59:52.091Z,66.79
2018-04-02T14:02:19.631Z,66.99
2018-04-02T14:04:47.181Z,66.77
2018-04-02T14:07:14.769Z,68.36
2018-04-02T14:09:42.332Z,66.12
2018-04-02T14:12:09.927Z,67.12
2018-04-02T14:14:37.591Z,67.44
2018-04-02T14:17:05.166Z,65.69
2018-04-02T14:19:33.169Z,67.64
2018-04-02T14:22:00.711Z,66.26
2018-04-02T14:24:28.270Z,67.60
2018-04-02T14:26:55.859Z,65.97
2018-04-02T14:29:23.451Z,67.11
2018-04-02T14:31:51.063Z,66.46
2018-04-02T14:34:18.612Z,67.37
2018-04-02T14:36:46.171Z,68.17
2018-04-02T14:39:13.749Z,68.93
2018-04-02T14:41:41.297Z,68.91
2018-04-02T14:44:08.886Z,68.28
2018-04-02T14:46:36.446Z,68.25
2018-04-02T14:49:03.997Z,68.69
2018-04-02T14:51:31.625Z,68.68
2018-04-02T14:53:59.167Z,70.50
2018-04-02T14:56:26.717Z,71.25
2018-04-02T14:58:54.284Z,71.35
2018-04-02T15:01:21.851Z,72.20
2018-04-02T15:03:49.461Z,72.82
2018-04-02T15:06:17.022Z,73.29
2018-04-02T15:08:44.568Z,73.54
2018-04-02T15:11:12.306Z,75.05
2018-04-02T15:13:39.869Z,75.25
2018-04-02T15:16:07.421Z,75.38
2018-04-02T15:18:35.006Z,75.44
2018-04-02T15:21:02.577Z,75.70
2018-04-02T15:23:30.106Z,74.87
2018-04-02T15:25:57.704Z,74.95
2018-04-02T15:28:25.257Z,74.41
2018-04-02T15:30:52.823Z,74.50
2018-04-02T15:33:20.400Z,74.08
2018-04-02T15:35:47.940Z,74.58
2018-04-02T15:38:15.916Z,74.77
2018-04-02T15:40:43.472Z,74.24
2018-04-02T15:43:11.023Z,75.64
2018-04-02T15:45:38.640Z,74.66
2018-04-02T15:48:06.188Z,75.58
2018-04-02T15:50:33.752Z,76.71
2018-04-02T15:53:02.275Z,77.05
2018-04-02T15:55:29.881Z,77.67
2018-04-02T15:57:57.418Z,77.56
2018-04-02T16:00:24.950Z,77.46
2018-04-02T16:02:52.561Z,78.39
2018-04-02T16:05:20.103Z,76.46
2018-04-02T16:07:47.768Z,77.23
2018-04-02T16:10:15.691Z,76.53
2018-04-02T16:12:43.236Z,74.79
2018-04-02T16:15:10.788Z,76.01
2018-04-02T16:17:38.359Z,75.37
2018-04-02T16:20:05.921Z,75.79
2018-04-02T16:22:33.515Z,76.23
2018-04-02T16:25:01.070Z,74.57
2018-04-02T16:27:28.628Z,74.38
2018-04-02T16:29:56.200Z,75.31
2018-04-02T16:32:24.179Z,75.33
2018-04-02T16:34:51.715Z,74.22
2018-04-02T16:37:19.274Z,75.08
2018-04-02T16:39:46.855Z,73.50
2018-04-02T16:42:14.763Z,74.02
2018-04-02T16:44:42.330Z,74.65
2018-04-02T16:47:09.863Z,75.25
2018-04-02T16:49:37.434Z,74.66
2018-04-02T16:52:04.985Z,74.21
2018-04-02T16:54:32.600Z,72.89
2018-04-02T16:57:00.175Z,74.73
2018-04-02T16:59:27.925Z,75.38
2018-04-02T17:01:55.464Z,73.11
2018-04-02T17:04:23.017Z,74.03
2018-04-02T17:06:50.639Z,74.69
2018-04-02T17:09:18.180Z,73.95
2018-04-02T17:11:45.738Z,75.76
2018-04-02T17:14:13.335Z,74.67
2018-04-02T17:16:40.893Z,74.92
2018-04-02T17:19:08.456Z,74.61
2018-04-02T17:21:36.076Z,73.99
2018-04-02T17:24:03.636Z,74.04
2018-04-02T17:26:31.190Z,74.92
2018-04-02T17:28:58.754Z,75.53
2018-04-02T17:31:27.931Z,76.22
2018-04-02T17:33:55.505Z,77.03
2018-04-02T17:36:23.053Z,76.17
2018-04-02T17:38:50.670Z,76.08
2018-04-02T17:41:18.229Z,76.63
2018-04-02T17:43:45.788Z,75.82
2018-04-02T17:46:13.412Z,75.71
2018-04-02T17:48:40.964Z,74.99
2018-04-02T17:51:08.513Z,74.86
2018-04-02T17:53:36.093Z,74.74
2018-04-02T17:56:03.735Z,75.11
2018-04-02T17:58:31.256Z,75.57
2018-04-02T18:00:58.897Z,75.70
2018-04-02T18:03:26.457Z,76.31
2018-04-02T18:05:53.991Z,75.21
2018-04-02T18:08:21.669Z,75.62
2018-04-02T18:10:49.269Z,74.77
2018-04-02T18:13:16.832Z,75.01
2018-04-02T18:15:44.371Z,74.58
2018-04-02T18:18:11.944Z,74.88
2018-04-02T18:20:39.499Z,74.27
2018-04-02T18:23:07.097Z,74.34
2018-04-02T18:25:34.644Z,73.92
2018-04-02T18:28:02.242Z,74.07
2018-04-02T18:30:29.868Z,74.40
2018-04-02T18:32:57.419Z,74.82
2018-04-02T18:35:25.019Z,75.36
2018-04-02T18:37:52.957Z,75.21
2018-04-02T18:40:20.597Z,74.61
2018-04-02T18:42:48.269Z,74.30
2018-04-02T18:45:16.026Z,75.02
2018-04-02T18:47:43.635Z,74.87
2018-04-02T18:50:11.240Z,74.92
2018-04-02T18:52:38.974Z,74.03
2018-04-02T18:55:06.724Z,74.35
2018-04-02T18:57:34.668Z,75.15
2018-04-02T19:00:02.243Z,75.43
2018-04-02T19:02:29.799Z,74.88
2018-04-02T19:04:57.428Z,75.07
2018-04-02T19:07:24.974Z,74.60
2018-04-02T19:09:52.894Z,74.96
2018-04-02T19:12:20.921Z,75.91
2018-04-02T19:14:48.673Z,75.14
2018-04-02T19:17:16.266Z,75.40
2018-04-02T19:19:44.126Z,75.58
2018-04-02T19:22:11.978Z,75.14
2018-04-02T19:24:39.779Z,75.70
2018-04-02T19:27:07.358Z,76.10
2018-04-02T19:29:35.233Z,76.34
2018-04-02T19:32:03.096Z,77.92
2018-04-02T19:34:30.674Z,78.04
2018-04-02T19:36:58.466Z,79.65
2018-04-02T19:39:26.250Z,81.00
2018-04-02T19:41:53.985Z,81.56
2018-04-02T19:44:21.588Z,82.44
2018-04-02T19:46:49.345Z,82.90
2018-04-02T19:49:17.077Z,83.49
2018-04-02T19:51:44.829Z,84.47
2018-04-02T19:54:12.669Z,85.59
2018-04-02T19:56:40.219Z,86.30
2018-04-02T19:59:07.777Z,87.10
2018-04-02T20:01:35.367Z,87.94
2018-04-02T20:04:02.911Z,88.46
2018-04-02T20:06:30.513Z,89.49
2018-04-02T20:08:58.175Z,89.64
2018-04-02T20:11:25.715Z,90.89
2018-04-02T20:13:53.293Z,91.45
2018-04-02T20:16:20.899Z,91.66
2018-04-02T20:18:48.441Z,92.06
2018-04-02T20:21:15.987Z,92.72
2018-04-02T20:23:43.939Z,92.64
2018-04-02T20:26:11.490Z,93.94
2018-04-02T20:28:39.057Z,93.87
2018-04-02T20:31:06.684Z,93.79
2018-04-02T20:33:34.233Z,94.78
2018-04-02T20:36:01.766Z,95.12
2018-04-02T20:38:29.356Z,95.79
2018-04-02T20:40:56.933Z,95.97
2018-04-02T20:43:24.556Z,97.19
2018-04-02T20:45:52.118Z,97.52
2018-04-02T20:48:19.669Z,97.43
2018-04-02T20:50:47.281Z,97.03
2018-04-02T20:53:14.820Z,98.28
2018-04-02T20:55:42.360Z,98.22
2018-04-02T20:58:09.976Z,98.51
2018-04-02T21:00:37.507Z,97.88
2018-04-02T21:03:05.034Z,98.96
2018-04-02T21:05:32.663Z,98.72
2018-04-02T21:08:00.217Z,99.14
2018-04-02T21:10:27.763Z,99.89
2018-04-02T21:12:55.361Z,99.78
2018-04-02T21:15:22.915Z,100.00
2018-04-02T21:17:50.464Z,100.00
2018-04-02T21:20:18.061Z,100.00
2018-04-02T21:22:45.634Z,100.00
2018-04-02T21:25:13.167Z,100.00
2018-04-02T21:27:40.750Z,100.00
2018-04-02T21:30:08.297Z,100.00
2018-04-02T21:32:36.284Z,100.00
2018-04-02T21:35:03.833Z,100.00
2018-04-02T21:37:31.372Z,100.00
2018-04-02T21:39:58.991Z,100.00
2018-04-02T21:42:26.541Z,100.00
2018-04-02T21:44:54.090Z,100.00
2018-04-02T21:47:21.692Z,100.00
2018-04-02T21:49:49.236Z,100.00
2018-04-02T21:52:16.785Z,100.00
2018-04-02T21:54:44.371Z,100.00
2018-04-02T21:57:11.932Z,100.00
2018-04-02T21:59:39.627Z,100.00
2018-04-02T22:02:07.205Z,100.00
2018-04-02T22:04:34.753Z,100.00
2018-04-02T22:07:04.369Z,100.00
2018-04-02T22:09:31.952Z,100.00
2018-04-02T22:11:59.504Z,100.00
2018-04-02T22:14:27.107Z,100.00
2018-04-02T22:16:54.653Z,100.00
2018-04-02T22:19:22.201Z,100.00
2018-04-02T22:21:50.587Z,100.00
2018-04-02T22:24:23.988Z,100.00
2018-04-02T22:26:52.737Z,100.00
2018-04-02T22:29:22.173Z,100.00
2018-04-02T22:31:49.729Z,100.00
2018-04-02T22:34:17.801Z,100.00
2018-04-02T22:36:45.372Z,100.00
2018-04-02T22:39:12.947Z,100.00
2018-04-02T22:41:40.531Z,100.00
2018-04-02T22:44:08.067Z,100.00
2018-04-02T22:46:35.612Z,100.00
2018-04-02T22:49:03.215Z,100.00
2018-04-02T22:51:30.764Z,100.00
2018-04-02T22:53:58.316Z,100.00
2018-04-02T22:56:26.285Z,100.00
2018-04-02T22:58:53.996Z,100.00
2018-04-02T23:01:21.531Z,100.00
2018-04-02T23:03:49.440Z,100.00
2018-04-02T23:06:16.976Z,100.00
2018-04-02T23:08:44.519Z,100.00
2018-04-02T23:11:12.122Z,99.64
2018-04-02T23:13:39.676Z,99.84
2018-04-02T23:16:07.221Z,99.16
2018-04-02T23:18:34.800Z,99.17
2018-04-02T23:21:02.330Z,99.67
2018-04-02T23:23:29.894Z,100.00
2018-04-02T23:25:57.447Z,100.00
2018-04-02T23:28:25.048Z,99.67
2018-04-02T23:30:52.575Z,99.89
2018-04-02T23:33:20.129Z,100.00
2018-04-02T23:35:47.737Z,100.00
2018-04-02T23:38:15.348Z,99.79
2018-04-02T23:40:42.904Z,99.69
2018-04-02T23:43:10.468Z,99.64
2018-04-02T23:45:38.038Z,98.52
2018-04-02T23:48:05.649Z,98.83
2018-04-02T23:50:33.210Z,98.75
2018-04-02T23:53:00.744Z,98.40
2018-04-02T23:55:28.344Z,98.50
2018-04-02T23:57:55.878Z,97.97
